KIOB

Details ICAO KIOB
Name MT STERLING MONTGOMERY CO
Region United States
Timezone America/New_York (UTC-5.0)
Plans Departing 3
Arriving 2
Stats Elevation 1,019 ft / 311 m (AMSL)
Location 38.058136° -83.979575°
Runways 1
Magnetic Variation 6.072° W
Sunrise 2017-12-16 12:47:07 UTC / 2017-12-16 07:47:07 Local
Sunset 2017-12-16 22:18:59 UTC / 2017-12-16 17:18:59 Local
Advertisement - Login to hide

Runways

ID Width Length Bearing (true) Bearing (mag) Surface Threshold Offset Overrun Length
03 75 ft / 23 m 5,007 ft / 1,526 m 27.04° 33.11° Asphalt 0 ft / 0 m 0 ft / 0 m
21 75 ft / 23 m 5,007 ft / 1,526 m 207.04° 213.11° Asphalt 0 ft / 0 m 0 ft / 0 m

Map

Weather


0- 5 10 15 20 25 30 35+ Temperature / ° C

Clouds and Precipitation
Forecast for 2017-12-16 18:00 UTC. Updated 2 hours ago

Ground ~20,000 ft ~40,000 ft Winds

METAR

KIOB 161455Z AUTO 25009KT 10SM CLR 02/M03 A3016 RMK AO2

TAF

Not found

Frequencies

Recorded 120.67 MHz AWOS 3
Approach 120.15 MHz LEXINGTON APP/DEP
Unicom 122.80 MHz CTAF/UNICOM
Warning: Do not use this data for real-world aviation or navigation. No guarantee of current accuracy is given.